avis per tempestes more information blitzortung!


avis per Pluja more information rain snow radar


Visita la nostra xarxa de llocs de meteo:

Template documentation
and downloads

And another site



Thunderstorms From: 18-09-2018 09:00 Until: 19-09-2018 20:59 warning for: Thunderstorms Level: Yellow info button
Rain From: 18-09-2018 09:00 Until: 19-09-2018 20:59 warning for: Rain Level: Yellow info button

Pagina Historial Weather Underground text

Diari Resum Agost 22, 2017 Unitats:  Imperial    Mètric   Tant
« Previous Dia
SegĂźent Dia »
Diari Setmana Mensual Anual Personalitzada
  Maxima: Minima: Media:
Temperatura: TemperatureC °F 18.9 °F 26.4 °F
Punt de rosada: DewpointC °F 16.0 °F 17.6 °F
Humitat: Humidity % 42 % 60 %
Wind Speed: WindSpeedKMH mph 0.0 mph 7.2 mph
RĂ fegues de vent: WindSpeedGustKMH mph - -
Vent:- - SW
Pression baro: PressurehPa in 1013.8 in -
Precipitacions: 0.0 in    
Historical Graphs
 
 
Dades de taula per Agost 22, 2017
Temps Temperatura Punt de rosada Pression baro Vent Wind Speed RĂ fegues de vent Humitat Rainfall Rate (Hourly)
TemperatureC °F DewpointC °F PressurehPa in Calm     Humidity % HourlyPrecipMM in
00:03 23.2 °F 17.2 °F 1016.8 in SW 1.9 mph   69 % 0.0 in
00:05 21.2 °F 18.2 °F 1015.8 in Calm   1.6 mph 83 % 0.0 in
00:15 21.2 °F 18.2 °F 1015.8 in Calm     83 % 0.0 in
00:25 21.1 °F 18.1 °F 1015.8 in WNW 1.6 mph 1.6 mph 83 % 0.0 in
00:35 20.9 °F 17.9 °F 1015.8 in WNW 1.6 mph 1.6 mph 83 % 0.0 in
00:45 20.7 °F 17.7 °F 1015.8 in WSW 1.6 mph 1.6 mph 83 % 0.0 in
00:55 20.6 °F 17.6 °F 1015.8 in Calm   1.6 mph 83 % 0.0 in
01:05 20.5 °F 17.5 °F 1015.8 in Calm   1.6 mph 83 % 0.0 in
01:15 20.4 °F 17.6 °F 1015.8 in Calm     84 % 0.0 in
01:25 20.3 °F 17.5 °F 1015.8 in Calm     84 % 0.0 in
01:35 20.0 °F 17.0 °F 1015.8 in SW 3.2 mph 3.2 mph 83 % 0.0 in
01:45 19.7 °F 16.7 °F 1015.8 in SW 3.2 mph 4.8 mph 83 % 0.0 in
01:55 19.7 °F 16.9 °F 1015.8 in WSW 3.2 mph 3.2 mph 84 % 0.0 in
02:05 19.7 °F 17.1 °F 1015.8 in Calm   3.2 mph 85 % 0.0 in
02:15 19.8 °F 17.2 °F 1015.8 in WSW 1.6 mph 3.2 mph 85 % 0.0 in
02:25 19.7 °F 17.1 °F 1015.8 in Calm   1.6 mph 85 % 0.0 in
02:35 19.7 °F 17.1 °F 1015.8 in Calm     85 % 0.0 in
02:45 19.3 °F 16.5 °F 1015.8 in North 3.2 mph 3.2 mph 84 % 0.0 in
03:05 19.2 °F 16.6 °F 1015.8 in Calm   1.6 mph 85 % 0.0 in
03:15 19.0 °F 16.4 °F 1015.8 in Calm   3.2 mph 85 % 0.0 in
03:25 18.9 °F 16.5 °F 1015.8 in SW 3.2 mph 4.8 mph 86 % 0.0 in
03:35 18.9 °F 16.5 °F 1015.8 in SW 3.2 mph 3.2 mph 86 % 0.0 in
03:45 19.0 °F 16.6 °F 1015.8 in WSW 1.6 mph 3.2 mph 86 % 0.0 in
03:55 19.1 °F 16.7 °F 1015.8 in WSW 1.6 mph 3.2 mph 86 % 0.0 in
04:05 19.1 °F 16.7 °F 1015.8 in SW 3.2 mph 3.2 mph 86 % 0.0 in
04:15 19.6 °F 17.4 °F 1015.8 in Calm   3.2 mph 87 % 0.0 in
04:25 20.7 °F 18.3 °F 1015.8 in Calm   3.2 mph 86 % 0.0 in
04:35 21.1 °F 18.1 °F 1015.8 in East 1.6 mph 3.2 mph 83 % 0.0 in
04:45 22.0 °F 18.6 °F 1016.8 in ENE 1.6 mph 3.2 mph 81 % 0.0 in
04:55 22.7 °F 18.9 °F 1016.8 in ENE 1.6 mph 3.2 mph 79 % 0.0 in
05:05 22.7 °F 18.9 °F 1015.8 in SSW 1.6 mph 3.2 mph 79 % 0.0 in
05:15 23.0 °F 18.6 °F 1016.8 in SSW 1.6 mph 3.2 mph 76 % 0.0 in
05:25 22.8 °F 18.6 °F 1016.8 in SW 3.2 mph 4.8 mph 77 % 0.0 in
05:35 23.2 °F 18.5 °F 1015.8 in WSW 3.2 mph 4.8 mph 75 % 0.0 in
05:45 24.3 °F 19.2 °F 1015.8 in South 1.6 mph 4.8 mph 73 % 0.0 in
05:55 25.3 °F 19.4 °F 1015.8 in SE 1.6 mph 4.8 mph 70 % 0.0 in
11:03 27.2 °F 18.8 °F 1015.8 in SW 9.3 mph 9.3 mph 60 % 0.0 in
11:04 27.2 °F 18.8 °F 1015.8 in SW 9.3 mph 9.3 mph 60 % 0.0 in
11:05 27.2 °F 18.8 °F 1015.8 in WSW 9.3 mph 9.3 mph 60 % 0.0 in
11:10 27.5 °F 19.1 °F 1015.8 in SW 9.3 mph 9.3 mph 60 % 0.0 in
11:15 28.1 °F 19.3 °F 1015.8 in West 9.5 mph 9.5 mph 59 % 0.0 in
11:20 28.1 °F 19.3 °F 1015.8 in SW 9.3 mph 9.3 mph 59 % 0.0 in
11:25 28.4 °F 19.6 °F 1015.8 in East 5.6 mph 5.6 mph 59 % 0.0 in
11:30 28.7 °F 19.6 °F 1015.8 in SSW 9.3 mph 9.3 mph 58 % 0.0 in
11:35 29.6 °F 20.2 °F 1015.8 in West 6.1 mph 6.1 mph 57 % 0.0 in
11:40 29.2 °F 19.8 °F 1015.8 in WSW 7.4 mph 7.4 mph 57 % 0.0 in
11:45 29.2 °F 19.5 °F 1015.8 in SW 5.6 mph 5.6 mph 56 % 0.0 in
11:50 29.8 °F 19.8 °F 1015.8 in West 9.3 mph 9.3 mph 55 % 0.0 in
11:55 29.7 °F 19.4 °F 1015.8 in WSW 9.3 mph 9.3 mph 54 % 0.0 in
12:00 29.6 °F 19.0 °F 1015.8 in SW 7.9 mph 7.9 mph 53 % 0.0 in
12:05 29.6 °F 19.0 °F 1015.8 in SW 11.1 mph 11.1 mph 53 % 0.0 in
12:10 30.2 °F 19.3 °F 1015.8 in WSW 9.3 mph 9.3 mph 52 % 0.0 in
12:15 30.5 °F 19.2 °F 1014.8 in SSW 13.0 mph 13.0 mph 51 % 0.0 in
12:20 30.3 °F 18.7 °F 1014.8 in SW 10.3 mph 10.3 mph 50 % 0.0 in
12:25 30.5 °F 18.6 °F 1014.8 in SSW 5.8 mph 5.8 mph 49 % 0.0 in
12:30 30.7 °F 18.8 °F 1015.8 in South 13.0 mph 13.0 mph 49 % 0.0 in
12:35 30.5 °F 18.2 °F 1015.8 in SW 16.7 mph 16.7 mph 48 % 0.0 in
12:40 30.8 °F 18.5 °F 1015.8 in SW 7.4 mph 7.4 mph 48 % 0.0 in
12:45 31.1 °F 18.8 °F 1015.8 in WSW 9.3 mph 9.3 mph 48 % 0.0 in
12:50 31.5 °F 18.8 °F 1015.8 in South 13.0 mph 13.0 mph 47 % 0.0 in
12:55 31.6 °F 18.9 °F 1015.8 in SW 9.3 mph 9.3 mph 47 % 0.0 in
13:00 31.7 °F 19.0 °F 1015.8 in SSW 9.3 mph 9.3 mph 47 % 0.0 in
13:05 32.0 °F 19.3 °F 1015.8 in WSW 7.4 mph 7.4 mph 47 % 0.0 in
13:10 32.7 °F 19.9 °F 1015.8 in SW 9.3 mph 9.3 mph 47 % 0.0 in
13:15 33.0 °F 19.8 °F 1014.8 in SSW 7.6 mph 7.6 mph 46 % 0.0 in
13:20 32.1 °F 19.0 °F 1014.8 in South 11.1 mph 11.1 mph 46 % 0.0 in
13:25 32.2 °F 19.1 °F 1014.8 in SW 6.1 mph 6.1 mph 46 % 0.0 in
13:30 32.2 °F 19.1 °F 1014.8 in SW 14.8 mph 14.8 mph 46 % 0.0 in
13:35 32.7 °F 19.6 °F 1014.8 in SW 13.7 mph 13.7 mph 46 % 0.0 in
13:40 32.3 °F 19.2 °F 1014.8 in South 9.3 mph 9.3 mph 46 % 0.0 in
13:45 32.4 °F 18.9 °F 1014.8 in SW 9.3 mph 9.3 mph 45 % 0.0 in
13:50 32.2 °F 18.8 °F 1014.8 in WSW 11.1 mph 11.1 mph 45 % 0.0 in
13:55 32.2 °F 18.8 °F 1014.8 in SSW 9.3 mph 9.3 mph 45 % 0.0 in
14:00 32.2 °F 18.8 °F 1014.8 in West 11.9 mph 11.9 mph 45 % 0.0 in
14:05 32.4 °F 18.9 °F 1014.8 in SSW 11.1 mph 11.1 mph 45 % 0.0 in
14:10 32.3 °F 18.8 °F 1014.8 in South 13.0 mph 13.0 mph 45 % 0.0 in
14:15 32.1 °F 18.3 °F 1014.8 in SSW 11.1 mph 11.1 mph 44 % 0.0 in
14:20 32.5 °F 19.1 °F 1014.8 in SSW 9.3 mph 9.3 mph 45 % 0.0 in
14:25 32.6 °F 19.1 °F 1014.8 in SW 9.3 mph 9.3 mph 45 % 0.0 in
14:30 32.8 °F 19.3 °F 1014.8 in SW 11.9 mph 11.9 mph 45 % 0.0 in
14:35 32.7 °F 18.8 °F 1014.8 in SSW 9.3 mph 9.3 mph 44 % 0.0 in
14:40 32.7 °F 18.8 °F 1014.8 in WSW 17.5 mph 17.5 mph 44 % 0.0 in
14:45 32.6 °F 18.8 °F 1014.8 in SW 13.0 mph 13.0 mph 44 % 0.0 in
14:50 32.9 °F 18.7 °F 1014.8 in SSW 9.3 mph 9.3 mph 43 % 0.0 in
14:51 32.9 °F 18.7 °F 1014.8 in SW 14.8 mph 14.8 mph 43 % 0.0 in
14:56 32.5 °F 17.9 °F 1014.8 in West 16.7 mph 16.7 mph 42 % 0.0 in
15:01 32.6 °F 18.4 °F 1014.8 in SW 16.7 mph 16.7 mph 43 % 0.0 in
15:06 32.6 °F 18.4 °F 1014.8 in West 16.7 mph 16.7 mph 43 % 0.0 in
15:11 32.6 °F 18.0 °F 1014.8 in SW 14.8 mph 14.8 mph 42 % 0.0 in
15:16 32.4 °F 17.8 °F 1014.8 in NW 13.0 mph 13.0 mph 42 % 0.0 in
15:21 32.4 °F 17.8 °F 1014.8 in WSW 16.7 mph 16.7 mph 42 % 0.0 in
15:26 32.0 °F 17.5 °F 1014.8 in SW 14.8 mph 14.8 mph 42 % 0.0 in
15:31 31.9 °F 17.8 °F 1014.8 in SW 11.4 mph 11.4 mph 43 % 0.0 in
15:36 31.8 °F 17.7 °F 1014.8 in WSW 22.2 mph 22.2 mph 43 % 0.0 in
15:41 31.9 °F 17.8 °F 1014.8 in West 13.7 mph 13.7 mph 43 % 0.0 in
15:46 31.7 °F 17.6 °F 1014.8 in SW 13.0 mph 13.0 mph 43 % 0.0 in
15:51 32.0 °F 17.8 °F 1014.8 in SSW 18.5 mph 18.5 mph 43 % 0.0 in
15:56 32.1 °F 17.9 °F 1013.8 in SW 11.1 mph 11.1 mph 43 % 0.0 in
16:01 32.3 °F 18.1 °F 1013.8 in SW 9.7 mph 9.7 mph 43 % 0.0 in
16:06 32.0 °F 17.5 °F 1013.8 in SSW 20.4 mph 20.4 mph 42 % 0.0 in
16:11 32.3 °F 18.1 °F 1014.8 in WSW 16.7 mph 16.7 mph 43 % 0.0 in
16:16 32.1 °F 17.6 °F 1014.8 in SW 13.0 mph 13.0 mph 42 % 0.0 in
16:21 31.9 °F 17.8 °F 1014.8 in SSW 14.0 mph 14.0 mph 43 % 0.0 in
16:26 31.8 °F 17.7 °F 1014.8 in SW 10.8 mph 10.8 mph 43 % 0.0 in
16:27 31.9 °F 17.8 °F 1014.8 in South 11.1 mph 11.1 mph 43 % 0.0 in
16:32 31.2 °F 17.1 °F 1014.8 in SSW 16.7 mph 16.7 mph 43 % 0.0 in
16:37 31.0 °F 16.9 °F 1014.8 in SW 16.7 mph 16.7 mph 43 % 0.0 in
16:42 31.3 °F 17.2 °F 1013.8 in SW 9.5 mph 9.5 mph 43 % 0.0 in
16:47 31.3 °F 17.2 °F 1013.8 in South 16.7 mph 16.7 mph 43 % 0.0 in
16:52 31.0 °F 16.9 °F 1013.8 in SSW 9.3 mph 9.3 mph 43 % 0.0 in
16:57 31.2 °F 17.1 °F 1013.8 in West 11.1 mph 11.1 mph 43 % 0.0 in
17:02 31.4 °F 17.3 °F 1013.8 in WSW 12.2 mph 12.2 mph 43 % 0.0 in
17:07 31.2 °F 17.1 °F 1013.8 in South 16.7 mph 16.7 mph 43 % 0.0 in
17:12 31.3 °F 17.2 °F 1013.8 in SW 7.4 mph 7.4 mph 43 % 0.0 in
17:17 31.1 °F 17.1 °F 1013.8 in South 16.7 mph 16.7 mph 43 % 0.0 in
17:22 31.0 °F 16.9 °F 1013.8 in South 16.1 mph 16.1 mph 43 % 0.0 in
17:27 30.8 °F 17.1 °F 1013.8 in WSW 13.0 mph 13.0 mph 44 % 0.0 in
17:32 31.1 °F 17.1 °F 1013.8 in SSW 7.4 mph 7.4 mph 43 % 0.0 in
17:37 31.2 °F 17.5 °F 1013.8 in ENE 11.1 mph 11.1 mph 44 % 0.0 in
17:42 30.7 °F 17.1 °F 1013.8 in WSW 20.4 mph 20.4 mph 44 % 0.0 in
17:47 30.4 °F 16.8 °F 1013.8 in SW 14.8 mph 14.8 mph 44 % 0.0 in
17:52 30.5 °F 17.2 °F 1013.8 in SW 11.1 mph 11.1 mph 45 % 0.0 in
17:57 30.2 °F 16.6 °F 1013.8 in SW 14.8 mph 14.8 mph 44 % 0.0 in
18:02 29.8 °F 16.6 °F 1013.8 in SW 11.4 mph 11.4 mph 45 % 0.0 in
18:07 29.6 °F 16.8 °F 1013.8 in WSW 11.1 mph 11.1 mph 46 % 0.0 in
18:12 30.2 °F 16.9 °F 1013.8 in SSE 7.4 mph 7.4 mph 45 % 0.0 in
18:17 29.9 °F 17.0 °F 1013.8 in WSW 11.1 mph 11.1 mph 46 % 0.0 in
18:22 29.5 °F 16.7 °F 1013.8 in SW 14.8 mph 14.8 mph 46 % 0.0 in
18:27 29.2 °F 16.4 °F 1013.8 in South 20.4 mph 20.4 mph 46 % 0.0 in
18:32 29.4 °F 16.9 °F 1013.8 in SW 9.3 mph 9.3 mph 47 % 0.0 in
18:37 29.4 °F 16.9 °F 1013.8 in South 12.2 mph 12.2 mph 47 % 0.0 in
18:42 29.2 °F 16.7 °F 1013.8 in SSW 9.3 mph 9.3 mph 47 % 0.0 in
18:47 28.8 °F 16.7 °F 1013.8 in SW 13.0 mph 13.0 mph 48 % 0.0 in
18:52 28.7 °F 16.6 °F 1013.8 in West 14.8 mph 14.8 mph 48 % 0.0 in
18:57 28.5 °F 16.4 °F 1013.8 in SSW 10.0 mph 10.0 mph 48 % 0.0 in
19:02 28.5 °F 16.4 °F 1013.8 in SSW 13.0 mph 13.0 mph 48 % 0.0 in
19:07 28.1 °F 16.1 °F 1013.8 in SW 7.4 mph 7.4 mph 48 % 0.0 in
19:12 28.1 °F 16.4 °F 1013.8 in South 11.1 mph 11.1 mph 49 % 0.0 in
19:17 28.0 °F 16.3 °F 1013.8 in SSW 11.1 mph 11.1 mph 49 % 0.0 in
19:22 28.1 °F 16.4 °F 1013.8 in South 7.4 mph 7.4 mph 49 % 0.0 in
19:27 27.8 °F 16.1 °F 1013.8 in SW 9.3 mph 9.3 mph 49 % 0.0 in
19:32 27.6 °F 16.2 °F 1013.8 in WSW 11.1 mph 11.1 mph 50 % 0.0 in
19:37 27.5 °F 16.2 °F 1013.8 in SSW 7.4 mph 7.4 mph 50 % 0.0 in
19:42 27.2 °F 16.2 °F 1013.8 in WSW 9.3 mph 9.3 mph 51 % 0.0 in
19:47 27.0 °F 16.0 °F 1013.8 in SSE 11.1 mph 11.1 mph 51 % 0.0 in
19:52 26.9 °F 16.5 °F 1013.8 in SW 9.7 mph 9.7 mph 53 % 0.0 in
19:57 26.6 °F 16.5 °F 1013.8 in SSW 7.4 mph 7.4 mph 54 % 0.0 in
20:02 26.5 °F 16.4 °F 1013.8 in WSW 10.0 mph 10.0 mph 54 % 0.0 in
20:07 26.4 °F 16.9 °F 1013.8 in SW 13.0 mph 13.0 mph 56 % 0.0 in
20:12 26.2 °F 16.7 °F 1013.8 in SW 14.8 mph 14.8 mph 56 % 0.0 in
20:15 22.5 °F 17.8 °F 1015.8 in Calm   4.8 mph 75 % 0.0 in
20:17 26.1 °F 16.6 °F 1013.8 in SW 3.7 mph 3.7 mph 56 % 0.0 in
20:22 26.0 °F 16.8 °F 1013.8 in SSW 7.4 mph 7.4 mph 57 % 0.0 in
20:25 22.2 °F 17.6 °F 1015.8 in WSW 1.6 mph 3.2 mph 75 % 0.0 in
20:27 25.9 °F 17.0 °F 1013.8 in South 9.3 mph 9.3 mph 58 % 0.0 in
20:32 25.8 °F 16.6 °F 1013.8 in SSE 9.3 mph 9.3 mph 57 % 0.0 in
20:35 21.9 °F 17.5 °F 1015.8 in SW 1.6 mph 3.2 mph 76 % 0.0 in
20:37 25.6 °F 17.0 °F 1013.8 in SW 3.7 mph 3.7 mph 59 % 0.0 in
20:42 25.5 °F 16.9 °F 1013.8 in WSW 5.6 mph 5.6 mph 59 % 0.0 in
20:45 21.9 °F 17.7 °F 1014.8 in Calm   3.2 mph 77 % 0.0 in
20:47 25.3 °F 16.7 °F 1013.8 in SW 6.1 mph 6.1 mph 59 % 0.0 in
20:52 25.2 °F 16.9 °F 1013.8 in WSW 3.9 mph 3.9 mph 60 % 0.0 in
20:55 21.8 °F 17.6 °F 1014.8 in SW 1.6 mph 3.2 mph 77 % 0.0 in
20:57 25.1 °F 16.8 °F 1013.8 in SW 5.6 mph 5.6 mph 60 % 0.0 in
21:02 24.9 °F 16.8 °F 1013.8 in SW 5.6 mph 5.6 mph 61 % 0.0 in
21:05 21.8 °F 17.6 °F 1015.8 in WSW 1.6 mph 3.2 mph 77 % 0.0 in
21:07 24.8 °F 17.0 °F 1013.8 in SW 9.3 mph 9.3 mph 62 % 0.0 in
21:12 24.7 °F 16.9 °F 1013.8 in SW 5.6 mph 5.6 mph 62 % 0.0 in
21:15 21.7 °F 17.7 °F 1015.8 in WSW 3.2 mph 3.2 mph 78 % 0.0 in
21:17 24.6 °F 17.1 °F 1013.8 in SW 5.6 mph 5.6 mph 63 % 0.0 in
21:22 24.4 °F 17.2 °F 1013.8 in SW 4.2 mph 4.2 mph 64 % 0.0 in
21:25 21.6 °F 17.8 °F 1015.8 in Calm   1.6 mph 79 % 0.0 in
21:27 24.4 °F 17.2 °F 1014.8 in SW 3.7 mph 3.7 mph 64 % 0.0 in
21:32 24.3 °F 17.1 °F 1014.8 in SW 3.7 mph 3.7 mph 64 % 0.0 in
21:35 21.5 °F 17.9 °F 1015.8 in Calm   1.6 mph 80 % 0.0 in
21:37 24.1 °F 16.9 °F 1014.8 in SW 5.6 mph 5.6 mph 64 % 0.0 in
21:42 24.0 °F 17.0 °F 1014.8 in SW 4.2 mph 4.2 mph 65 % 0.0 in
21:45 21.2 °F 17.2 °F 1015.8 in WNW 1.6 mph 4.8 mph 78 % 0.0 in
21:47 23.9 °F 17.4 °F 1014.8 in SW 1.9 mph 1.9 mph 67 % 0.0 in
21:52 23.9 °F 17.4 °F 1014.8 in SW 3.7 mph 3.7 mph 67 % 0.0 in
21:55 21.0 °F 17.0 °F 1015.8 in NNE 1.6 mph 3.2 mph 78 % 0.0 in
21:57 23.8 °F 17.6 °F 1014.8 in SW 3.7 mph 3.7 mph 68 % 0.0 in
22:02 23.7 °F 17.4 °F 1014.8 in WSW 3.7 mph 3.7 mph 68 % 0.0 in
22:05 20.8 °F 17.2 °F 1015.8 in Calm   3.2 mph 80 % 0.0 in
22:07 23.7 °F 17.7 °F 1014.8 in SW 1.9 mph 2.3 mph 69 % 0.0 in
22:12 23.6 °F 17.6 °F 1014.8 in WSW 3.7 mph 3.7 mph 69 % 0.0 in
22:15 20.7 °F 17.1 °F 1014.8 in WSW 1.6 mph 3.2 mph 80 % 0.0 in
22:17 23.6 °F 17.6 °F 1014.8 in WSW 3.7 mph 3.7 mph 69 % 0.0 in
22:22 23.5 °F 17.5 °F 1014.8 in SW 3.7 mph 3.7 mph 69 % 0.0 in
22:25 20.4 °F 17.1 °F 1014.8 in Calm   3.2 mph 81 % 0.0 in
22:27 23.4 °F 17.6 °F 1014.8 in SW 1.9 mph   70 % 0.0 in
22:32 23.3 °F 17.5 °F 1014.8 in WSW 2.3 mph   70 % 0.0 in
22:35 20.4 °F 17.1 °F 1014.8 in Calm   1.6 mph 81 % 0.0 in
22:37 23.2 °F 17.4 °F 1014.8 in SW 1.9 mph   70 % 0.0 in
22:42 23.1 °F 17.3 °F 1014.8 in SW 3.7 mph 3.7 mph 70 % 0.0 in
22:45 20.4 °F 17.1 °F 1014.8 in NNW 1.6 mph 3.2 mph 81 % 0.0 in
22:47 23.1 °F 17.3 °F 1014.8 in SW 3.7 mph 3.7 mph 70 % 0.0 in
22:52 23.0 °F 17.4 °F 1014.8 in Calm     71 % 0.0 in
22:55 20.5 °F 17.3 °F 1014.8 in Calm   3.2 mph 82 % 0.0 in
22:57 23.0 °F 17.4 °F 1014.8 in WSW 2.6 mph 2.6 mph 71 % 0.0 in
23:02 23.0 °F 17.4 °F 1014.8 in WSW 2.6 mph 2.6 mph 71 % 0.0 in
23:05 20.5 °F 17.3 °F 1013.8 in NE 1.6 mph 3.2 mph 82 % 0.0 in
23:07 23.0 °F 17.7 °F 1014.8 in WSW 1.9 mph   72 % 0.0 in
23:12 23.0 °F 17.7 °F 1014.8 in WSW 2.6 mph 2.6 mph 72 % 0.0 in
23:15 20.4 °F 17.2 °F 1013.8 in ENE 3.2 mph 4.8 mph 82 % 0.0 in
23:17 23.0 °F 17.7 °F 1014.8 in West 1.9 mph 1.9 mph 72 % 0.0 in
23:22 22.9 °F 17.6 °F 1014.8 in WSW 1.9 mph   72 % 0.0 in
23:25 19.9 °F 16.3 °F 1013.8 in NE 4.8 mph 6.4 mph 80 % 0.0 in
23:27 22.8 °F 17.7 °F 1015.8 in Calm     73 % 0.0 in
23:32 22.8 °F 17.7 °F 1015.8 in Calm     73 % 0.0 in
23:35 19.8 °F 16.6 °F 1014.8 in WSW 3.2 mph 4.8 mph 82 % 0.0 in
23:37 22.7 °F 17.6 °F 1015.8 in Calm     73 % 0.0 in
23:42 22.7 °F 17.8 °F 1014.8 in Calm     74 % 0.0 in
23:45 19.9 °F 16.9 °F 1014.8 in Calm   3.2 mph 83 % 0.0 in
23:47 22.7 °F 17.8 °F 1014.8 in Calm     74 % 0.0 in
23:52 22.6 °F 17.7 °F 1014.8 in Calm     74 % 0.0 in
23:55 20.3 °F 17.1 °F 1014.8 in West 3.2 mph 4.8 mph 82 % 0.0 in
23:57 22.6 °F 17.7 °F 1015.8 in Calm     74 % 0.0 in
Meteo Sesrovires
Elogis d' Weather Underground - 1.5 mb

Guio original per  Jim McMurry - jmcmurry@mwt.net Adaptat per a la plantilla per  Wim van der Kuil - Leuven-Template.eu

Trobareu la nostra informacio del temps tambe a:

Weather Underground

AWEKAS